sensor_id;sensor_type;location;lat;lon;timestamp;P1;durP1;ratioP1;P2;durP2;ratioP2
41631;SDS011;37452;51.938;4.624;2023-05-28T00:02:24;27.50;;;7.18;;
41631;SDS011;37452;51.938;4.624;2023-05-28T00:04:50;21.13;;;7.03;;
41631;SDS011;37452;51.938;4.624;2023-05-28T00:07:15;19.48;;;6.82;;
41631;SDS011;37452;51.938;4.624;2023-05-28T00:09:41;18.20;;;6.50;;
41631;SDS011;37452;51.938;4.624;2023-05-28T00:12:06;20.98;;;7.05;;
41631;SDS011;37452;51.938;4.624;2023-05-28T00:14:32;17.48;;;6.57;;
41631;SDS011;37452;51.938;4.624;2023-05-28T00:16:58;19.65;;;7.10;;
41631;SDS011;37452;51.938;4.624;2023-05-28T00:19:23;17.85;;;6.55;;
41631;SDS011;37452;51.938;4.624;2023-05-28T00:21:48;19.95;;;6.43;;
41631;SDS011;37452;51.938;4.624;2023-05-28T00:24:14;17.88;;;6.53;;
41631;SDS011;37452;51.938;4.624;2023-05-28T00:26:39;19.63;;;7.53;;
41631;SDS011;37452;51.938;4.624;2023-05-28T00:29:04;18.05;;;6.35;;
41631;SDS011;37452;51.938;4.624;2023-05-28T00:31:30;15.52;;;5.65;;
41631;SDS011;37452;51.938;4.624;2023-05-28T00:33:55;26.05;;;7.18;;
41631;SDS011;37452;51.938;4.624;2023-05-28T00:36:21;21.05;;;6.72;;
41631;SDS011;37452;51.938;4.624;2023-05-28T00:38:46;19.33;;;6.70;;
41631;SDS011;37452;51.938;4.624;2023-05-28T00:41:12;18.52;;;7.13;;
41631;SDS011;37452;51.938;4.624;2023-05-28T00:43:37;29.50;;;7.78;;
41631;SDS011;37452;51.938;4.624;2023-05-28T00:46:03;20.40;;;6.63;;
41631;SDS011;37452;51.938;4.624;2023-05-28T00:48:31;17.00;;;7.03;;
41631;SDS011;37452;51.938;4.624;2023-05-28T00:50:57;19.30;;;6.85;;
41631;SDS011;37452;51.938;4.624;2023-05-28T00:53:23;17.40;;;6.97;;
41631;SDS011;37452;51.938;4.624;2023-05-28T00:55:50;15.43;;;6.38;;
41631;SDS011;37452;51.938;4.624;2023-05-28T00:58:15;20.00;;;6.50;;
41631;SDS011;37452;51.938;4.624;2023-05-28T01:00:41;14.75;;;5.50;;
41631;SDS011;37452;51.938;4.624;2023-05-28T01:03:08;19.05;;;6.72;;
41631;SDS011;37452;51.938;4.624;2023-05-28T01:05:34;20.42;;;6.15;;
41631;SDS011;37452;51.938;4.624;2023-05-28T01:08:03;15.93;;;5.85;;
41631;SDS011;37452;51.938;4.624;2023-05-28T01:10:30;14.30;;;5.20;;
41631;SDS011;37452;51.938;4.624;2023-05-28T01:12:57;15.05;;;5.93;;
41631;SDS011;37452;51.938;4.624;2023-05-28T01:15:25;13.57;;;6.05;;
41631;SDS011;37452;51.938;4.624;2023-05-28T01:17:51;15.27;;;5.30;;
41631;SDS011;37452;51.938;4.624;2023-05-28T01:20:22;14.35;;;6.20;;
41631;SDS011;37452;51.938;4.624;2023-05-28T01:22:51;17.83;;;6.40;;
41631;SDS011;37452;51.938;4.624;2023-05-28T01:25:19;19.38;;;6.75;;
41631;SDS011;37452;51.938;4.624;2023-05-28T01:27:45;14.45;;;6.93;;
41631;SDS011;37452;51.938;4.624;2023-05-28T01:30:11;14.60;;;6.00;;
41631;SDS011;37452;51.938;4.624;2023-05-28T01:32:40;14.40;;;6.20;;
41631;SDS011;37452;51.938;4.624;2023-05-28T01:35:05;13.65;;;5.68;;
41631;SDS011;37452;51.938;4.624;2023-05-28T01:37:33;15.38;;;5.78;;
41631;SDS011;37452;51.938;4.624;2023-05-28T01:40:04;16.08;;;6.00;;
41631;SDS011;37452;51.938;4.624;2023-05-28T01:42:33;15.07;;;5.45;;
41631;SDS011;37452;51.938;4.624;2023-05-28T01:45:00;20.17;;;6.00;;
41631;SDS011;37452;51.938;4.624;2023-05-28T01:47:28;18.20;;;7.18;;
41631;SDS011;37452;51.938;4.624;2023-05-28T01:49:54;15.02;;;5.95;;
41631;SDS011;37452;51.938;4.624;2023-05-28T01:52:20;19.52;;;5.75;;
41631;SDS011;37452;51.938;4.624;2023-05-28T01:54:46;18.30;;;6.05;;
41631;SDS011;37452;51.938;4.624;2023-05-28T01:57:11;15.77;;;6.20;;
41631;SDS011;37452;51.938;4.624;2023-05-28T01:59:36;12.48;;;5.88;;
41631;SDS011;37452;51.938;4.624;2023-05-28T02:02:02;13.02;;;5.88;;
41631;SDS011;37452;51.938;4.624;2023-05-28T02:04:28;14.40;;;6.40;;
41631;SDS011;37452;51.938;4.624;2023-05-28T02:06:53;20.52;;;5.88;;
41631;SDS011;37452;51.938;4.624;2023-05-28T02:09:18;13.65;;;5.72;;
41631;SDS011;37452;51.938;4.624;2023-05-28T02:11:43;20.02;;;6.13;;
41631;SDS011;37452;51.938;4.624;2023-05-28T02:14:09;20.00;;;7.07;;
41631;SDS011;37452;51.938;4.624;2023-05-28T02:16:42;19.02;;;6.82;;
41631;SDS011;37452;51.938;4.624;2023-05-28T02:19:13;20.27;;;7.30;;
41631;SDS011;37452;51.938;4.624;2023-05-28T02:21:38;16.92;;;6.93;;
41631;SDS011;37452;51.938;4.624;2023-05-28T02:24:04;18.88;;;6.63;;
41631;SDS011;37452;51.938;4.624;2023-05-28T02:26:29;15.60;;;6.22;;
41631;SDS011;37452;51.938;4.624;2023-05-28T02:28:54;14.52;;;6.35;;
41631;SDS011;37452;51.938;4.624;2023-05-28T02:31:20;22.63;;;7.22;;
41631;SDS011;37452;51.938;4.624;2023-05-28T02:33:45;15.88;;;6.20;;
41631;SDS011;37452;51.938;4.624;2023-05-28T02:36:11;17.13;;;6.97;;
41631;SDS011;37452;51.938;4.624;2023-05-28T02:38:36;19.13;;;7.22;;
41631;SDS011;37452;51.938;4.624;2023-05-28T02:41:02;15.15;;;6.35;;
41631;SDS011;37452;51.938;4.624;2023-05-28T02:43:27;23.90;;;7.07;;
41631;SDS011;37452;51.938;4.624;2023-05-28T02:45:52;23.58;;;6.95;;
41631;SDS011;37452;51.938;4.624;2023-05-28T02:48:18;19.02;;;6.00;;
41631;SDS011;37452;51.938;4.624;2023-05-28T02:50:43;16.02;;;5.65;;
41631;SDS011;37452;51.938;4.624;2023-05-28T02:53:08;18.08;;;5.97;;
41631;SDS011;37452;51.938;4.624;2023-05-28T02:55:34;19.02;;;6.35;;
41631;SDS011;37452;51.938;4.624;2023-05-28T02:57:59;14.20;;;6.53;;
41631;SDS011;37452;51.938;4.624;2023-05-28T03:00:24;18.92;;;6.45;;
41631;SDS011;37452;51.938;4.624;2023-05-28T03:02:50;17.02;;;7.22;;
41631;SDS011;37452;51.938;4.624;2023-05-28T03:05:15;14.88;;;6.18;;
41631;SDS011;37452;51.938;4.624;2023-05-28T03:07:41;17.08;;;6.07;;
41631;SDS011;37452;51.938;4.624;2023-05-28T03:10:06;12.35;;;5.90;;
41631;SDS011;37452;51.938;4.624;2023-05-28T03:12:32;17.85;;;6.28;;
41631;SDS011;37452;51.938;4.624;2023-05-28T03:14:57;20.40;;;6.18;;
41631;SDS011;37452;51.938;4.624;2023-05-28T03:17:22;23.48;;;6.72;;
41631;SDS011;37452;51.938;4.624;2023-05-28T03:19:48;20.30;;;7.47;;
41631;SDS011;37452;51.938;4.624;2023-05-28T03:22:13;19.83;;;6.57;;
41631;SDS011;37452;51.938;4.624;2023-05-28T03:24:39;21.30;;;6.53;;
41631;SDS011;37452;51.938;4.624;2023-05-28T03:27:04;19.38;;;6.82;;
41631;SDS011;37452;51.938;4.624;2023-05-28T03:29:30;18.33;;;6.65;;
41631;SDS011;37452;51.938;4.624;2023-05-28T03:31:56;17.90;;;6.47;;
41631;SDS011;37452;51.938;4.624;2023-05-28T03:34:21;19.95;;;6.97;;
41631;SDS011;37452;51.938;4.624;2023-05-28T03:36:48;20.52;;;7.22;;
41631;SDS011;37452;51.938;4.624;2023-05-28T03:39:14;15.52;;;6.05;;
41631;SDS011;37452;51.938;4.624;2023-05-28T03:41:39;16.67;;;7.03;;
41631;SDS011;37452;51.938;4.624;2023-05-28T03:44:04;14.73;;;6.55;;
41631;SDS011;37452;51.938;4.624;2023-05-28T03:46:30;16.52;;;6.32;;
41631;SDS011;37452;51.938;4.624;2023-05-28T03:48:55;22.55;;;6.78;;
41631;SDS011;37452;51.938;4.624;2023-05-28T03:51:21;16.67;;;6.22;;
41631;SDS011;37452;51.938;4.624;2023-05-28T03:53:48;14.52;;;6.60;;
41631;SDS011;37452;51.938;4.624;2023-05-28T03:56:13;16.38;;;6.65;;
41631;SDS011;37452;51.938;4.624;2023-05-28T03:58:39;13.77;;;6.10;;
41631;SDS011;37452;51.938;4.624;2023-05-28T04:01:04;16.35;;;6.65;;
41631;SDS011;37452;51.938;4.624;2023-05-28T04:03:30;16.65;;;6.80;;
41631;SDS011;37452;51.938;4.624;2023-05-28T04:05:55;16.77;;;5.97;;
41631;SDS011;37452;51.938;4.624;2023-05-28T04:08:20;20.55;;;7.03;;
41631;SDS011;37452;51.938;4.624;2023-05-28T04:10:46;22.58;;;7.13;;
41631;SDS011;37452;51.938;4.624;2023-05-28T04:13:12;16.23;;;6.18;;
41631;SDS011;37452;51.938;4.624;2023-05-28T04:15:37;15.27;;;6.30;;
41631;SDS011;37452;51.938;4.624;2023-05-28T04:18:02;21.27;;;6.75;;
41631;SDS011;37452;51.938;4.624;2023-05-28T04:20:28;19.58;;;6.97;;
41631;SDS011;37452;51.938;4.624;2023-05-28T04:22:54;10.95;;;5.78;;
41631;SDS011;37452;51.938;4.624;2023-05-28T04:25:20;15.32;;;6.45;;
41631;SDS011;37452;51.938;4.624;2023-05-28T04:27:45;19.38;;;6.50;;
41631;SDS011;37452;51.938;4.624;2023-05-28T04:30:12;15.30;;;6.03;;
41631;SDS011;37452;51.938;4.624;2023-05-28T04:32:37;15.40;;;6.35;;
41631;SDS011;37452;51.938;4.624;2023-05-28T04:35:06;10.80;;;5.72;;
41631;SDS011;37452;51.938;4.624;2023-05-28T04:37:33;17.38;;;5.88;;
41631;SDS011;37452;51.938;4.624;2023-05-28T04:40:01;13.25;;;5.82;;
41631;SDS011;37452;51.938;4.624;2023-05-28T04:42:30;17.80;;;7.03;;
41631;SDS011;37452;51.938;4.624;2023-05-28T04:44:56;17.10;;;6.72;;
41631;SDS011;37452;51.938;4.624;2023-05-28T04:47:23;21.25;;;6.85;;
41631;SDS011;37452;51.938;4.624;2023-05-28T04:49:48;16.75;;;6.43;;
41631;SDS011;37452;51.938;4.624;2023-05-28T04:52:14;22.05;;;7.00;;
41631;SDS011;37452;51.938;4.624;2023-05-28T04:54:41;16.85;;;6.53;;
41631;SDS011;37452;51.938;4.624;2023-05-28T04:57:07;18.85;;;7.30;;
41631;SDS011;37452;51.938;4.624;2023-05-28T04:59:32;16.23;;;7.22;;
41631;SDS011;37452;51.938;4.624;2023-05-28T05:01:59;19.58;;;7.22;;
41631;SDS011;37452;51.938;4.624;2023-05-28T05:04:24;16.02;;;6.35;;
41631;SDS011;37452;51.938;4.624;2023-05-28T05:06:50;21.02;;;6.63;;
41631;SDS011;37452;51.938;4.624;2023-05-28T05:09:15;17.85;;;7.10;;
41631;SDS011;37452;51.938;4.624;2023-05-28T05:11:41;19.80;;;6.55;;
41631;SDS011;37452;51.938;4.624;2023-05-28T05:14:06;23.20;;;6.90;;
41631;SDS011;37452;51.938;4.624;2023-05-28T05:16:31;13.52;;;6.50;;
41631;SDS011;37452;51.938;4.624;2023-05-28T05:18:57;22.08;;;6.60;;
41631;SDS011;37452;51.938;4.624;2023-05-28T05:21:22;16.40;;;7.07;;
41631;SDS011;37452;51.938;4.624;2023-05-28T05:23:48;18.63;;;6.40;;
41631;SDS011;37452;51.938;4.624;2023-05-28T05:26:13;19.90;;;6.55;;
41631;SDS011;37452;51.938;4.624;2023-05-28T05:28:41;22.10;;;6.35;;
41631;SDS011;37452;51.938;4.624;2023-05-28T05:31:07;17.52;;;7.03;;
41631;SDS011;37452;51.938;4.624;2023-05-28T05:33:32;20.45;;;6.82;;
41631;SDS011;37452;51.938;4.624;2023-05-28T05:35:58;14.75;;;5.90;;
41631;SDS011;37452;51.938;4.624;2023-05-28T05:38:23;15.02;;;6.45;;
41631;SDS011;37452;51.938;4.624;2023-05-28T05:40:48;16.33;;;6.30;;
41631;SDS011;37452;51.938;4.624;2023-05-28T05:43:14;16.52;;;5.60;;
41631;SDS011;37452;51.938;4.624;2023-05-28T05:45:39;17.00;;;5.75;;
41631;SDS011;37452;51.938;4.624;2023-05-28T05:48:05;14.63;;;5.68;;
41631;SDS011;37452;51.938;4.624;2023-05-28T05:50:30;17.95;;;6.82;;
41631;SDS011;37452;51.938;4.624;2023-05-28T05:52:56;26.67;;;6.35;;
41631;SDS011;37452;51.938;4.624;2023-05-28T05:55:24;12.98;;;5.18;;
41631;SDS011;37452;51.938;4.624;2023-05-28T05:57:49;12.20;;;5.60;;
41631;SDS011;37452;51.938;4.624;2023-05-28T06:00:15;19.40;;;5.50;;
41631;SDS011;37452;51.938;4.624;2023-05-28T06:02:40;13.65;;;5.70;;
41631;SDS011;37452;51.938;4.624;2023-05-28T06:05:06;16.58;;;5.85;;
41631;SDS011;37452;51.938;4.624;2023-05-28T06:07:31;20.80;;;6.60;;
41631;SDS011;37452;51.938;4.624;2023-05-28T06:09:57;12.20;;;5.22;;
41631;SDS011;37452;51.938;4.624;2023-05-28T06:12:23;16.13;;;5.72;;
41631;SDS011;37452;51.938;4.624;2023-05-28T06:14:48;17.42;;;5.65;;
41631;SDS011;37452;51.938;4.624;2023-05-28T06:17:14;10.10;;;4.57;;
41631;SDS011;37452;51.938;4.624;2023-05-28T06:19:39;13.18;;;5.63;;
41631;SDS011;37452;51.938;4.624;2023-05-28T06:22:06;16.40;;;5.18;;
41631;SDS011;37452;51.938;4.624;2023-05-28T06:24:31;13.45;;;5.35;;
41631;SDS011;37452;51.938;4.624;2023-05-28T06:26:57;12.50;;;4.90;;
41631;SDS011;37452;51.938;4.624;2023-05-28T06:29:22;12.77;;;4.68;;
41631;SDS011;37452;51.938;4.624;2023-05-28T06:31:48;13.38;;;5.32;;
41631;SDS011;37452;51.938;4.624;2023-05-28T06:34:13;15.65;;;5.38;;
41631;SDS011;37452;51.938;4.624;2023-05-28T06:36:38;15.30;;;5.13;;
41631;SDS011;37452;51.938;4.624;2023-05-28T06:39:04;19.40;;;4.97;;
41631;SDS011;37452;51.938;4.624;2023-05-28T06:41:30;17.50;;;5.03;;
41631;SDS011;37452;51.938;4.624;2023-05-28T06:43:55;13.98;;;5.68;;
41631;SDS011;37452;51.938;4.624;2023-05-28T06:46:20;19.30;;;5.35;;
41631;SDS011;37452;51.938;4.624;2023-05-28T06:48:46;17.02;;;5.10;;
41631;SDS011;37452;51.938;4.624;2023-05-28T06:51:11;15.68;;;4.63;;
41631;SDS011;37452;51.938;4.624;2023-05-28T06:53:37;20.95;;;4.55;;
41631;SDS011;37452;51.938;4.624;2023-05-28T06:56:03;15.32;;;4.85;;
41631;SDS011;37452;51.938;4.624;2023-05-28T06:58:30;13.63;;;4.57;;
41631;SDS011;37452;51.938;4.624;2023-05-28T07:00:55;13.35;;;4.80;;
41631;SDS011;37452;51.938;4.624;2023-05-28T07:03:21;15.55;;;6.07;;
41631;SDS011;37452;51.938;4.624;2023-05-28T07:05:48;12.35;;;4.28;;
41631;SDS011;37452;51.938;4.624;2023-05-28T07:08:14;11.77;;;4.60;;
41631;SDS011;37452;51.938;4.624;2023-05-28T07:10:39;12.90;;;5.05;;
41631;SDS011;37452;51.938;4.624;2023-05-28T07:13:04;13.57;;;4.65;;
41631;SDS011;37452;51.938;4.624;2023-05-28T07:15:30;18.35;;;5.18;;
41631;SDS011;37452;51.938;4.624;2023-05-28T07:17:55;13.75;;;4.75;;
41631;SDS011;37452;51.938;4.624;2023-05-28T07:20:20;13.77;;;5.00;;
41631;SDS011;37452;51.938;4.624;2023-05-28T07:22:46;11.85;;;4.90;;
41631;SDS011;37452;51.938;4.624;2023-05-28T07:25:11;11.90;;;4.95;;
41631;SDS011;37452;51.938;4.624;2023-05-28T07:27:37;12.88;;;4.70;;
41631;SDS011;37452;51.938;4.624;2023-05-28T07:30:02;16.27;;;5.05;;
41631;SDS011;37452;51.938;4.624;2023-05-28T07:32:28;12.85;;;4.60;;
41631;SDS011;37452;51.938;4.624;2023-05-28T07:34:53;12.48;;;4.55;;
41631;SDS011;37452;51.938;4.624;2023-05-28T07:37:19;15.30;;;4.68;;
41631;SDS011;37452;51.938;4.624;2023-05-28T07:39:44;9.40;;;4.28;;
41631;SDS011;37452;51.938;4.624;2023-05-28T07:42:10;14.07;;;4.25;;
41631;SDS011;37452;51.938;4.624;2023-05-28T07:44:35;11.27;;;4.43;;
41631;SDS011;37452;51.938;4.624;2023-05-28T07:47:01;15.15;;;4.55;;
41631;SDS011;37452;51.938;4.624;2023-05-28T07:49:26;10.32;;;4.47;;
41631;SDS011;37452;51.938;4.624;2023-05-28T07:51:52;14.98;;;4.00;;
41631;SDS011;37452;51.938;4.624;2023-05-28T07:54:17;13.93;;;4.72;;
41631;SDS011;37452;51.938;4.624;2023-05-28T07:56:42;10.05;;;4.00;;
41631;SDS011;37452;51.938;4.624;2023-05-28T07:59:08;14.63;;;4.40;;
41631;SDS011;37452;51.938;4.624;2023-05-28T08:01:34;9.15;;;4.15;;
41631;SDS011;37452;51.938;4.624;2023-05-28T08:03:59;14.18;;;4.53;;
41631;SDS011;37452;51.938;4.624;2023-05-28T08:06:25;16.30;;;4.72;;
41631;SDS011;37452;51.938;4.624;2023-05-28T08:08:51;16.00;;;5.82;;
41631;SDS011;37452;51.938;4.624;2023-05-28T08:11:17;13.88;;;4.40;;
41631;SDS011;37452;51.938;4.624;2023-05-28T08:13:42;13.52;;;4.18;;
41631;SDS011;37452;51.938;4.624;2023-05-28T08:16:11;16.05;;;5.00;;
41631;SDS011;37452;51.938;4.624;2023-05-28T08:18:37;9.52;;;4.03;;
41631;SDS011;37452;51.938;4.624;2023-05-28T08:21:04;13.35;;;3.63;;
41631;SDS011;37452;51.938;4.624;2023-05-28T08:23:29;11.15;;;3.92;;
41631;SDS011;37452;51.938;4.624;2023-05-28T08:25:59;10.88;;;4.10;;
41631;SDS011;37452;51.938;4.624;2023-05-28T08:28:24;10.82;;;3.92;;
41631;SDS011;37452;51.938;4.624;2023-05-28T08:30:50;14.43;;;4.53;;
41631;SDS011;37452;51.938;4.624;2023-05-28T08:33:15;14.80;;;4.25;;
41631;SDS011;37452;51.938;4.624;2023-05-28T08:35:41;10.52;;;3.88;;
41631;SDS011;37452;51.938;4.624;2023-05-28T08:38:06;9.07;;;3.95;;
41631;SDS011;37452;51.938;4.624;2023-05-28T08:40:31;11.20;;;3.55;;
41631;SDS011;37452;51.938;4.624;2023-05-28T08:43:03;10.85;;;3.92;;
41631;SDS011;37452;51.938;4.624;2023-05-28T08:45:29;12.57;;;4.30;;
41631;SDS011;37452;51.938;4.624;2023-05-28T08:47:54;9.60;;;3.40;;
41631;SDS011;37452;51.938;4.624;2023-05-28T08:50:20;12.18;;;3.80;;
41631;SDS011;37452;51.938;4.624;2023-05-28T08:52:49;9.25;;;3.75;;
41631;SDS011;37452;51.938;4.624;2023-05-28T08:55:16;11.40;;;3.95;;
41631;SDS011;37452;51.938;4.624;2023-05-28T08:57:42;11.43;;;4.13;;
41631;SDS011;37452;51.938;4.624;2023-05-28T09:00:09;12.80;;;3.83;;
41631;SDS011;37452;51.938;4.624;2023-05-28T09:02:36;12.88;;;3.97;;
41631;SDS011;37452;51.938;4.624;2023-05-28T09:05:04;14.13;;;3.83;;
41631;SDS011;37452;51.938;4.624;2023-05-28T09:07:29;12.65;;;3.85;;
41631;SDS011;37452;51.938;4.624;2023-05-28T09:09:55;12.82;;;3.70;;
41631;SDS011;37452;51.938;4.624;2023-05-28T09:12:22;13.70;;;4.10;;
41631;SDS011;37452;51.938;4.624;2023-05-28T09:14:49;10.77;;;3.88;;
41631;SDS011;37452;51.938;4.624;2023-05-28T09:17:17;14.05;;;3.47;;
41631;SDS011;37452;51.938;4.624;2023-05-28T09:19:51;14.77;;;4.00;;
41631;SDS011;37452;51.938;4.624;2023-05-28T09:22:17;10.05;;;3.63;;
41631;SDS011;37452;51.938;4.624;2023-05-28T09:24:47;10.85;;;3.90;;
41631;SDS011;37452;51.938;4.624;2023-05-28T09:27:13;10.57;;;4.45;;
41631;SDS011;37452;51.938;4.624;2023-05-28T09:29:42;11.77;;;4.35;;
41631;SDS011;37452;51.938;4.624;2023-05-28T09:32:07;13.20;;;3.90;;
41631;SDS011;37452;51.938;4.624;2023-05-28T09:34:33;11.20;;;3.78;;
41631;SDS011;37452;51.938;4.624;2023-05-28T09:37:02;10.40;;;4.00;;
41631;SDS011;37452;51.938;4.624;2023-05-28T09:39:28;7.88;;;3.53;;
41631;SDS011;37452;51.938;4.624;2023-05-28T09:42:13;8.55;;;3.30;;
41631;SDS011;37452;51.938;4.624;2023-05-28T09:44:38;13.32;;;3.58;;
41631;SDS011;37452;51.938;4.624;2023-05-28T09:47:17;11.20;;;4.20;;
41631;SDS011;37452;51.938;4.624;2023-05-28T09:49:44;10.48;;;4.13;;
41631;SDS011;37452;51.938;4.624;2023-05-28T09:52:11;13.48;;;3.88;;
41631;SDS011;37452;51.938;4.624;2023-05-28T09:54:50;11.35;;;4.00;;
41631;SDS011;37452;51.938;4.624;2023-05-28T09:57:17;13.80;;;4.00;;
41631;SDS011;37452;51.938;4.624;2023-05-28T09:59:47;11.27;;;3.53;;
41631;SDS011;37452;51.938;4.624;2023-05-28T10:04:59;11.43;;;3.97;;
41631;SDS011;37452;51.938;4.624;2023-05-28T10:07:28;11.43;;;3.75;;
41631;SDS011;37452;51.938;4.624;2023-05-28T10:09:54;10.18;;;3.28;;
41631;SDS011;37452;51.938;4.624;2023-05-28T10:12:23;15.32;;;3.92;;
41631;SDS011;37452;51.938;4.624;2023-05-28T10:14:52;12.30;;;3.65;;
41631;SDS011;37452;51.938;4.624;2023-05-28T10:17:18;9.10;;;3.80;;
41631;SDS011;37452;51.938;4.624;2023-05-28T10:19:45;8.95;;;3.33;;
41631;SDS011;37452;51.938;4.624;2023-05-28T10:22:11;9.75;;;3.53;;
41631;SDS011;37452;51.938;4.624;2023-05-28T10:24:37;13.00;;;4.00;;
41631;SDS011;37452;51.938;4.624;2023-05-28T10:27:07;13.10;;;4.22;;
41631;SDS011;37452;51.938;4.624;2023-05-28T10:29:44;13.10;;;3.63;;
41631;SDS011;37452;51.938;4.624;2023-05-28T10:32:16;8.23;;;3.50;;
41631;SDS011;37452;51.938;4.624;2023-05-28T10:34:42;9.57;;;3.97;;
41631;SDS011;37452;51.938;4.624;2023-05-28T10:37:08;11.88;;;3.78;;
41631;SDS011;37452;51.938;4.624;2023-05-28T10:42:04;12.18;;;4.38;;
41631;SDS011;37452;51.938;4.624;2023-05-28T10:44:49;12.27;;;3.67;;
41631;SDS011;37452;51.938;4.624;2023-05-28T10:47:15;10.52;;;4.68;;
41631;SDS011;37452;51.938;4.624;2023-05-28T10:50:09;10.15;;;3.78;;
41631;SDS011;37452;51.938;4.624;2023-05-28T10:52:36;13.95;;;4.60;;
41631;SDS011;37452;51.938;4.624;2023-05-28T10:55:02;13.93;;;4.35;;
41631;SDS011;37452;51.938;4.624;2023-05-28T11:00:10;12.90;;;4.38;;
41631;SDS011;37452;51.938;4.624;2023-05-28T11:02:43;11.70;;;4.18;;
41631;SDS011;37452;51.938;4.624;2023-05-28T11:05:12;13.77;;;4.10;;
41631;SDS011;37452;51.938;4.624;2023-05-28T11:07:41;15.73;;;3.63;;
41631;SDS011;37452;51.938;4.624;2023-05-28T11:10:10;9.45;;;4.07;;
41631;SDS011;37452;51.938;4.624;2023-05-28T11:12:38;12.35;;;4.00;;
41631;SDS011;37452;51.938;4.624;2023-05-28T11:15:05;9.77;;;3.85;;
41631;SDS011;37452;51.938;4.624;2023-05-28T11:17:41;10.80;;;3.45;;
41631;SDS011;37452;51.938;4.624;2023-05-28T11:20:23;12.57;;;4.40;;
41631;SDS011;37452;51.938;4.624;2023-05-28T11:22:50;11.68;;;4.05;;
41631;SDS011;37452;51.938;4.624;2023-05-28T11:25:16;10.00;;;4.03;;
41631;SDS011;37452;51.938;4.624;2023-05-28T11:27:43;10.45;;;3.80;;
41631;SDS011;37452;51.938;4.624;2023-05-28T11:30:11;10.90;;;3.42;;
41631;SDS011;37452;51.938;4.624;2023-05-28T11:32:38;10.70;;;4.03;;
41631;SDS011;37452;51.938;4.624;2023-05-28T11:35:08;12.10;;;4.18;;
41631;SDS011;37452;51.938;4.624;2023-05-28T11:37:36;9.25;;;3.78;;
41631;SDS011;37452;51.938;4.624;2023-05-28T11:40:04;11.63;;;4.30;;
41631;SDS011;37452;51.938;4.624;2023-05-28T11:42:30;9.38;;;3.78;;
41631;SDS011;37452;51.938;4.624;2023-05-28T11:44:56;11.75;;;3.83;;
41631;SDS011;37452;51.938;4.624;2023-05-28T11:47:23;9.23;;;3.60;;
41631;SDS011;37452;51.938;4.624;2023-05-28T11:49:49;11.40;;;3.88;;
41631;SDS011;37452;51.938;4.624;2023-05-28T11:52:16;10.30;;;4.40;;
41631;SDS011;37452;51.938;4.624;2023-05-28T11:54:42;12.10;;;3.88;;
41631;SDS011;37452;51.938;4.624;2023-05-28T11:57:09;11.32;;;4.47;;
41631;SDS011;37452;51.938;4.624;2023-05-28T11:59:35;10.60;;;3.90;;
41631;SDS011;37452;51.938;4.624;2023-05-28T12:02:13;12.98;;;3.85;;
41631;SDS011;37452;51.938;4.624;2023-05-28T12:04:56;8.05;;;3.95;;
41631;SDS011;37452;51.938;4.624;2023-05-28T12:07:26;10.50;;;3.78;;
41631;SDS011;37452;51.938;4.624;2023-05-28T12:12:30;12.93;;;4.07;;
41631;SDS011;37452;51.938;4.624;2023-05-28T12:15:03;10.32;;;4.25;;
41631;SDS011;37452;51.938;4.624;2023-05-28T12:17:32;10.18;;;3.50;;
41631;SDS011;37452;51.938;4.624;2023-05-28T12:20:05;9.13;;;3.50;;
41631;SDS011;37452;51.938;4.624;2023-05-28T12:22:32;13.43;;;4.07;;
41631;SDS011;37452;51.938;4.624;2023-05-28T12:24:58;16.17;;;4.68;;
41631;SDS011;37452;51.938;4.624;2023-05-28T12:27:23;9.55;;;3.53;;
41631;SDS011;37452;51.938;4.624;2023-05-28T12:29:49;9.38;;;4.00;;
41631;SDS011;37452;51.938;4.624;2023-05-28T12:32:14;11.50;;;4.28;;
41631;SDS011;37452;51.938;4.624;2023-05-28T12:34:39;8.23;;;3.72;;
41631;SDS011;37452;51.938;4.624;2023-05-28T12:37:05;12.70;;;4.35;;
41631;SDS011;37452;51.938;4.624;2023-05-28T12:39:30;13.05;;;3.40;;
41631;SDS011;37452;51.938;4.624;2023-05-28T12:41:56;11.45;;;3.65;;
41631;SDS011;37452;51.938;4.624;2023-05-28T12:44:21;11.10;;;4.03;;
41631;SDS011;37452;51.938;4.624;2023-05-28T12:46:47;13.55;;;4.38;;
41631;SDS011;37452;51.938;4.624;2023-05-28T12:49:12;10.48;;;3.50;;
41631;SDS011;37452;51.938;4.624;2023-05-28T12:51:38;8.15;;;3.45;;
41631;SDS011;37452;51.938;4.624;2023-05-28T12:54:04;10.85;;;3.40;;
41631;SDS011;37452;51.938;4.624;2023-05-28T12:56:31;9.23;;;3.80;;
41631;SDS011;37452;51.938;4.624;2023-05-28T12:58:56;9.98;;;3.20;;
41631;SDS011;37452;51.938;4.624;2023-05-28T13:01:21;9.32;;;3.60;;
41631;SDS011;37452;51.938;4.624;2023-05-28T13:03:46;9.55;;;3.47;;
41631;SDS011;37452;51.938;4.624;2023-05-28T13:06:12;9.10;;;3.47;;
41631;SDS011;37452;51.938;4.624;2023-05-28T13:08:37;13.50;;;3.65;;
41631;SDS011;37452;51.938;4.624;2023-05-28T13:11:03;9.50;;;3.78;;
41631;SDS011;37452;51.938;4.624;2023-05-28T13:13:28;9.77;;;3.72;;
41631;SDS011;37452;51.938;4.624;2023-05-28T13:15:54;10.00;;;3.65;;
41631;SDS011;37452;51.938;4.624;2023-05-28T13:18:19;9.77;;;3.28;;
41631;SDS011;37452;51.938;4.624;2023-05-28T13:20:44;9.52;;;3.42;;
41631;SDS011;37452;51.938;4.624;2023-05-28T13:23:10;8.38;;;3.35;;
41631;SDS011;37452;51.938;4.624;2023-05-28T13:25:35;10.88;;;4.10;;
41631;SDS011;37452;51.938;4.624;2023-05-28T13:28:02;12.05;;;4.07;;
41631;SDS011;37452;51.938;4.624;2023-05-28T13:30:28;8.68;;;3.53;;
41631;SDS011;37452;51.938;4.624;2023-05-28T13:32:53;13.60;;;3.97;;
41631;SDS011;37452;51.938;4.624;2023-05-28T13:35:18;12.10;;;4.00;;
41631;SDS011;37452;51.938;4.624;2023-05-28T13:37:45;8.90;;;3.92;;
41631;SDS011;37452;51.938;4.624;2023-05-28T13:40:11;12.75;;;3.80;;
41631;SDS011;37452;51.938;4.624;2023-05-28T13:42:38;9.40;;;3.30;;
41631;SDS011;37452;51.938;4.624;2023-05-28T13:45:04;9.30;;;3.15;;
41631;SDS011;37452;51.938;4.624;2023-05-28T13:47:31;11.90;;;3.78;;
41631;SDS011;37452;51.938;4.624;2023-05-28T13:49:57;14.30;;;4.22;;
41631;SDS011;37452;51.938;4.624;2023-05-28T13:52:22;10.07;;;3.45;;
41631;SDS011;37452;51.938;4.624;2023-05-28T13:54:48;11.32;;;3.92;;
41631;SDS011;37452;51.938;4.624;2023-05-28T13:57:13;11.23;;;4.05;;
41631;SDS011;37452;51.938;4.624;2023-05-28T13:59:38;10.50;;;4.18;;
41631;SDS011;37452;51.938;4.624;2023-05-28T14:02:04;10.25;;;3.53;;
41631;SDS011;37452;51.938;4.624;2023-05-28T14:04:29;10.50;;;3.67;;
41631;SDS011;37452;51.938;4.624;2023-05-28T14:06:55;10.77;;;3.70;;
41631;SDS011;37452;51.938;4.624;2023-05-28T14:09:20;10.15;;;3.28;;
41631;SDS011;37452;51.938;4.624;2023-05-28T14:11:45;12.90;;;3.38;;
41631;SDS011;37452;51.938;4.624;2023-05-28T14:14:11;14.00;;;4.25;;
41631;SDS011;37452;51.938;4.624;2023-05-28T14:16:39;7.53;;;2.83;;
41631;SDS011;37452;51.938;4.624;2023-05-28T14:19:04;9.25;;;3.67;;
41631;SDS011;37452;51.938;4.624;2023-05-28T14:21:29;7.40;;;3.30;;
41631;SDS011;37452;51.938;4.624;2023-05-28T14:23:55;9.68;;;3.97;;
41631;SDS011;37452;51.938;4.624;2023-05-28T14:26:20;8.27;;;3.63;;
41631;SDS011;37452;51.938;4.624;2023-05-28T14:28:45;8.35;;;3.47;;
41631;SDS011;37452;51.938;4.624;2023-05-28T14:31:11;11.52;;;3.78;;
41631;SDS011;37452;51.938;4.624;2023-05-28T14:33:36;10.55;;;3.70;;
41631;SDS011;37452;51.938;4.624;2023-05-28T14:36:01;6.50;;;3.35;;
41631;SDS011;37452;51.938;4.624;2023-05-28T14:38:27;10.32;;;3.78;;
41631;SDS011;37452;51.938;4.624;2023-05-28T14:40:52;9.60;;;3.85;;
41631;SDS011;37452;51.938;4.624;2023-05-28T14:43:17;9.55;;;4.50;;